Time;durP1;ratioP1;P1;durP2;ratioP2;P2;SDS_P1;SDS_P2;PMS_P1;PMS_P2;Temp;Humidity;BMP_temperature;BMP_pressure;BME280_temperature;BME280_humidity;BME280_pressure;Samples;Min_cycle;Max_cycle;Signal;HPM_P1;HPM_P2
2022/01/04 00:00:37;;;;;;;8.80;3.42;;;7.70;99.90;;;;;;5026709;28;20026;-76
2022/01/04 00:03:03;;;;;;;12.60;3.72;;;7.70;99.90;;;;;;5026308;28;20030;-74
2022/01/04 00:05:29;;;;;;;11.13;3.47;;;7.70;99.90;;;;;;5026619;28;20036;-73
2022/01/04 00:07:55;;;;;;;10.95;4.13;;;7.80;99.90;;;;;;5026755;28;20034;-73
2022/01/04 00:10:23;;;;;;;11.75;3.30;;;7.80;99.90;;;;;;5026163;28;20038;-70
2022/01/04 00:15:33;;;;;;;16.65;4.00;;;7.80;99.90;;;;;;5026642;28;20033;-71
2022/01/04 00:17:59;;;;;;;17.10;3.80;;;7.90;99.90;;;;;;5026233;28;20475;-72
2022/01/04 00:20:25;;;;;;;8.00;3.30;;;7.90;99.90;;;;;;5034749;28;20026;-73
2022/01/04 00:22:50;;;;;;;12.50;3.35;;;7.90;99.90;;;;;;5026270;28;20041;-73
2022/01/04 00:25:16;;;;;;;8.07;2.83;;;7.90;99.90;;;;;;5025800;28;20037;-71
2022/01/04 00:27:42;;;;;;;13.32;2.95;;;7.90;99.90;;;;;;5026256;28;20030;-72
2022/01/04 00:30:17;;;;;;;27.98;3.88;;;7.90;99.90;;;;;;5022969;28;20093;-72
2022/01/04 00:32:42;;;;;;;11.20;3.45;;;7.90;99.90;;;;;;5023169;28;20033;-75
2022/01/04 00:35:08;;;;;;;15.63;4.03;;;7.90;99.90;;;;;;5018987;28;20061;-73
2022/01/04 00:37:34;;;;;;;14.80;3.53;;;7.90;99.90;;;;;;5006286;28;20022;-74
2022/01/04 00:40:00;;;;;;;8.60;2.58;;;8.00;99.90;;;;;;5013615;28;20084;-72
2022/01/04 00:42:25;;;;;;;6.93;2.58;;;7.90;99.90;;;;;;5024633;28;20034;-72
2022/01/04 00:44:51;;;;;;;16.95;4.50;;;7.90;99.90;;;;;;5026106;28;20022;-73
2022/01/04 00:47:19;;;;;;;12.52;3.88;;;7.90;99.90;;;;;;5025526;28;20053;-75
2022/01/04 00:49:45;;;;;;;20.20;4.43;;;8.00;99.90;;;;;;5024474;28;20111;-74
2022/01/04 00:52:16;;;;;;;12.90;4.47;;;8.00;99.90;;;;;;5025970;28;20042;-74
2022/01/04 00:54:41;;;;;;;15.68;4.85;;;8.00;99.90;;;;;;5025538;28;20030;-75
2022/01/04 00:57:07;;;;;;;25.83;5.18;;;8.00;99.90;;;;;;5025545;28;20033;-74
2022/01/04 00:59:33;;;;;;;13.43;4.95;;;8.00;99.90;;;;;;5024133;28;20026;-73
2022/01/04 01:01:58;;;;;;;9.85;3.35;;;8.00;99.90;;;;;;5024203;28;20029;-73
2022/01/04 01:04:26;;;;;;;17.98;5.05;;;8.00;99.90;;;;;;5025612;28;20033;-74
2022/01/04 01:06:51;;;;;;;10.80;3.88;;;8.00;99.90;;;;;;5025376;28;20022;-73
2022/01/04 01:09:18;;;;;;;22.02;5.32;;;8.00;99.90;;;;;;5025549;28;20036;-74
2022/01/04 01:11:43;;;;;;;19.58;4.80;;;8.10;99.90;;;;;;5025324;28;20132;-74
2022/01/04 01:14:09;;;;;;;13.30;4.20;;;8.10;99.90;;;;;;5025059;28;20026;-73
2022/01/04 01:16:35;;;;;;;14.57;4.00;;;8.10;99.90;;;;;;5025382;28;20036;-74
2022/01/04 01:19:01;;;;;;;18.42;4.18;;;8.10;99.90;;;;;;5025315;28;20032;-74
2022/01/04 01:21:26;;;;;;;14.40;4.40;;;8.10;99.90;;;;;;5025328;28;20082;-74
2022/01/04 01:23:52;;;;;;;11.73;4.30;;;8.10;99.90;;;;;;5025267;28;20041;-72
2022/01/04 01:26:17;;;;;;;19.67;5.03;;;8.10;99.90;;;;;;5025034;28;20044;-74
2022/01/04 01:28:43;;;;;;;20.35;4.53;;;8.10;99.90;;;;;;5023338;28;20034;-72
2022/01/04 01:31:10;;;;;;;23.88;4.97;;;8.10;99.90;;;;;;5025026;28;20045;-72
2022/01/04 01:33:35;;;;;;;15.70;4.30;;;8.00;99.90;;;;;;5021072;28;20077;-73
2022/01/04 01:36:01;;;;;;;8.18;4.18;;;8.00;99.90;;;;;;5003745;28;20026;-75
2022/01/04 01:38:26;;;;;;;10.73;4.30;;;8.00;99.90;;;;;;5005671;28;20105;-73
2022/01/04 01:40:53;;;;;;;15.38;4.43;;;8.00;99.90;;;;;;5003766;28;20073;-74
2022/01/04 01:43:19;;;;;;;12.15;4.95;;;8.00;99.90;;;;;;5003820;28;20054;-73
2022/01/04 01:45:45;;;;;;;11.32;4.93;;;8.00;99.90;;;;;;5005120;28;20030;-73
2022/01/04 01:48:12;;;;;;;16.63;5.15;;;8.00;99.90;;;;;;5004885;28;20034;-73
2022/01/04 01:50:38;;;;;;;16.58;5.35;;;8.00;99.90;;;;;;5004816;28;20419;-73
2022/01/04 01:53:11;;;;;;;10.00;4.55;;;8.00;99.90;;;;;;5004043;28;20035;-73
2022/01/04 01:55:36;;;;;;;17.13;4.72;;;8.00;99.90;;;;;;5004906;28;20027;-73
2022/01/04 01:58:03;;;;;;;12.55;5.00;;;8.00;99.90;;;;;;5005231;28;20387;-73
2022/01/04 02:00:30;;;;;;;12.35;4.72;;;8.00;99.90;;;;;;5005280;28;20022;-74
2022/01/04 02:02:59;;;;;;;12.90;4.75;;;8.00;99.90;;;;;;5003535;28;20026;-74
2022/01/04 02:05:25;;;;;;;12.05;3.88;;;8.00;99.90;;;;;;5005253;28;20030;-71
2022/01/04 02:07:51;;;;;;;20.40;5.10;;;8.00;99.90;;;;;;5003528;28;20034;-72
2022/01/04 02:10:17;;;;;;;10.18;4.15;;;8.00;99.90;;;;;;5004902;28;20042;-73
2022/01/04 02:12:47;;;;;;;17.55;4.63;;;8.00;99.90;;;;;;5003861;28;20030;-76
2022/01/04 02:15:19;;;;;;;12.25;5.70;;;7.90;99.90;;;;;;5005876;28;20031;-73
2022/01/04 02:17:45;;;;;;;11.90;4.57;;;7.90;99.90;;;;;;5018024;28;20026;-73
2022/01/04 02:20:12;;;;;;;12.50;5.05;;;7.90;99.90;;;;;;5016811;28;20062;-73
2022/01/04 02:22:38;;;;;;;12.95;5.38;;;7.90;99.90;;;;;;5024168;28;20026;-73
2022/01/04 02:25:05;;;;;;;18.92;5.63;;;7.80;99.90;;;;;;5024663;28;20060;-74
2022/01/04 02:27:35;;;;;;;14.50;5.38;;;7.80;99.90;;;;;;5024372;28;20026;-74
2022/01/04 02:30:05;;;;;;;16.52;5.20;;;7.80;99.90;;;;;;5022839;28;20164;-74
2022/01/04 02:32:31;;;;;;;14.07;4.18;;;7.80;99.90;;;;;;5024552;28;20022;-72
2022/01/04 02:34:56;;;;;;;13.43;4.68;;;7.80;99.90;;;;;;5014437;28;20506;-73
2022/01/04 02:37:24;;;;;;;8.70;4.75;;;7.80;99.90;;;;;;5004594;28;20561;-73
2022/01/04 02:39:54;;;;;;;13.82;5.57;;;7.80;99.90;;;;;;5004939;28;20026;-76
2022/01/04 02:42:20;;;;;;;18.10;5.50;;;7.80;99.90;;;;;;5014928;28;20038;-74
2022/01/04 02:44:46;;;;;;;16.92;6.00;;;7.80;99.90;;;;;;5004638;28;20031;-73
2022/01/04 02:47:13;;;;;;;19.17;5.57;;;7.80;99.90;;;;;;5016471;28;20049;-73
2022/01/04 02:49:39;;;;;;;19.60;5.72;;;7.80;99.90;;;;;;5023743;28;20562;-72
2022/01/04 02:52:20;;;;;;;13.95;5.15;;;7.80;99.90;;;;;;5023078;28;20062;-76
2022/01/04 02:54:51;;;;;;;23.67;6.00;;;7.90;99.90;;;;;;5024353;28;20049;-75
2022/01/04 02:57:17;;;;;;;12.63;5.38;;;7.90;99.90;;;;;;5024040;28;20033;-75
2022/01/04 02:59:42;;;;;;;21.40;5.70;;;7.90;99.90;;;;;;5013195;28;20030;-72
2022/01/04 03:02:08;;;;;;;14.52;5.85;;;7.90;99.90;;;;;;5007824;28;20043;-73
2022/01/04 03:04:34;;;;;;;11.02;5.75;;;7.90;99.90;;;;;;5008133;28;20026;-73
2022/01/04 03:07:00;;;;;;;12.73;5.18;;;7.90;99.90;;;;;;5006895;28;20030;-75
2022/01/04 03:09:26;;;;;;;12.13;5.43;;;8.00;99.90;;;;;;5007896;28;20034;-75
2022/01/04 03:11:56;;;;;;;18.63;6.53;;;7.90;99.90;;;;;;5007647;28;20069;-72
2022/01/04 03:14:22;;;;;;;10.57;4.90;;;7.90;99.90;;;;;;5008092;28;20036;-74
2022/01/04 03:16:47;;;;;;;18.88;6.05;;;8.00;99.90;;;;;;5007441;28;20030;-73
2022/01/04 03:19:13;;;;;;;13.02;5.35;;;8.00;99.90;;;;;;5007590;28;20047;-72
2022/01/04 03:21:41;;;;;;;14.25;5.95;;;8.00;99.90;;;;;;5007554;28;20109;-73
2022/01/04 03:24:09;;;;;;;13.88;5.85;;;8.00;99.90;;;;;;5007284;28;20047;-73
2022/01/04 03:26:35;;;;;;;12.15;5.50;;;8.00;99.90;;;;;;5007577;28;20027;-74
2022/01/04 03:29:01;;;;;;;25.77;6.70;;;8.00;99.90;;;;;;5006374;28;20030;-73
2022/01/04 03:31:28;;;;;;;16.73;5.88;;;8.00;99.90;;;;;;5026899;28;20514;-71
2022/01/04 03:33:54;;;;;;;17.35;5.82;;;8.00;99.90;;;;;;5027043;28;20037;-76
2022/01/04 03:36:22;;;;;;;12.48;6.03;;;7.90;99.90;;;;;;5027003;28;20081;-72
2022/01/04 03:38:49;;;;;;;18.33;6.10;;;7.90;99.90;;;;;;5026925;28;20045;-71
2022/01/04 03:41:19;;;;;;;20.98;7.57;;;7.90;99.90;;;;;;5025856;28;20528;-71
2022/01/04 03:43:44;;;;;;;18.48;5.75;;;7.90;99.90;;;;;;5026560;28;20030;-73
2022/01/04 03:46:10;;;;;;;14.63;5.55;;;7.90;99.90;;;;;;5026382;28;20101;-71
2022/01/04 03:48:36;;;;;;;21.63;5.90;;;7.90;99.90;;;;;;5025452;28;20049;-73
2022/01/04 03:51:03;;;;;;;21.35;6.47;;;7.90;99.90;;;;;;5026646;28;20076;-73
2022/01/04 03:53:29;;;;;;;21.85;7.10;;;7.90;99.90;;;;;;5026584;28;20030;-73
2022/01/04 03:55:59;;;;;;;14.73;6.22;;;7.80;99.90;;;;;;5027022;28;20026;-75
2022/01/04 03:58:25;;;;;;;16.88;5.90;;;7.80;99.90;;;;;;5026766;28;20627;-73
2022/01/04 04:00:50;;;;;;;24.23;6.20;;;7.80;99.90;;;;;;5026398;28;20049;-74
2022/01/04 04:03:17;;;;;;;24.15;7.45;;;7.80;99.90;;;;;;5026737;28;20030;-74
2022/01/04 04:05:43;;;;;;;23.77;6.70;;;7.80;99.90;;;;;;5026187;28;20037;-75
2022/01/04 04:08:09;;;;;;;22.38;7.07;;;7.80;99.90;;;;;;5025314;28;20029;-75
2022/01/04 04:10:34;;;;;;;16.38;4.78;;;7.80;99.90;;;;;;5026459;28;20107;-75
2022/01/04 04:13:00;;;;;;;14.45;6.22;;;7.80;99.90;;;;;;5026453;28;20042;-75
2022/01/04 04:15:26;;;;;;;20.52;6.57;;;7.80;99.90;;;;;;5026449;28;20033;-75
2022/01/04 04:17:52;;;;;;;18.65;6.07;;;7.80;99.90;;;;;;5024997;28;20630;-74
2022/01/04 04:20:17;;;;;;;35.10;6.63;;;7.80;99.90;;;;;;5025996;28;20104;-75
2022/01/04 04:22:43;;;;;;;12.88;6.28;;;7.80;99.90;;;;;;5026260;28;20371;-75
2022/01/04 04:25:09;;;;;;;19.00;7.13;;;7.80;99.90;;;;;;5026217;28;20033;-75
2022/01/04 04:27:47;;;;;;;21.27;6.05;;;7.80;99.90;;;;;;5025903;28;20030;-73
2022/01/04 04:30:13;;;;;;;18.00;5.53;;;7.80;99.90;;;;;;5026165;28;20422;-74
2022/01/04 04:32:38;;;;;;;25.50;8.20;;;7.70;99.90;;;;;;5026168;28;20086;-73
2022/01/04 04:35:04;;;;;;;15.40;5.25;;;7.70;99.90;;;;;;5025657;28;20078;-75
2022/01/04 04:37:30;;;;;;;14.95;6.40;;;7.70;99.90;;;;;;5026302;28;20033;-72
2022/01/04 04:39:56;;;;;;;27.77;6.88;;;7.70;99.90;;;;;;5025986;28;20026;-73
2022/01/04 04:42:22;;;;;;;21.65;6.10;;;7.70;99.90;;;;;;5040738;28;20044;-75
2022/01/04 04:44:50;;;;;;;13.90;7.15;;;7.70;99.90;;;;;;5025912;28;20034;-75
2022/01/04 04:47:16;;;;;;;23.23;6.80;;;7.70;99.90;;;;;;5025558;28;20032;-75
2022/01/04 04:49:41;;;;;;;17.58;7.63;;;7.70;99.90;;;;;;5023903;28;20030;-73
2022/01/04 04:52:07;;;;;;;34.47;7.22;;;7.70;99.90;;;;;;5024512;28;20069;-74
2022/01/04 04:54:33;;;;;;;13.43;6.45;;;7.70;99.90;;;;;;5025518;28;20038;-73
2022/01/04 04:56:58;;;;;;;18.40;7.13;;;7.70;99.90;;;;;;5025612;28;20032;-75
2022/01/04 04:59:24;;;;;;;25.77;6.97;;;7.70;99.90;;;;;;5025799;28;20055;-75
2022/01/04 05:01:50;;;;;;;19.50;6.97;;;7.70;99.90;;;;;;5025148;28;20122;-74
2022/01/04 05:04:15;;;;;;;18.35;7.18;;;7.70;99.90;;;;;;5025633;28;20093;-74
2022/01/04 05:06:41;;;;;;;27.88;8.38;;;7.70;99.90;;;;;;5025571;28;20026;-73
2022/01/04 05:09:06;;;;;;;22.05;6.90;;;7.70;99.90;;;;;;5025044;28;20030;-74
2022/01/04 05:11:32;;;;;;;20.67;8.02;;;7.70;99.90;;;;;;5025444;28;20469;-74
2022/01/04 05:14:03;;;;;;;27.83;8.07;;;7.70;99.90;;;;;;5040744;28;20030;-75
2022/01/04 05:16:29;;;;;;;26.92;7.95;;;7.70;99.90;;;;;;5025072;28;20179;-75
2022/01/04 05:18:54;;;;;;;17.20;7.20;;;7.70;99.90;;;;;;5024220;28;20470;-74
2022/01/04 05:21:20;;;;;;;30.52;6.65;;;7.70;99.90;;;;;;5024706;28;20429;-74
2022/01/04 05:23:45;;;;;;;24.25;7.55;;;7.70;99.90;;;;;;5040137;28;20026;-74
2022/01/04 05:26:11;;;;;;;17.38;7.05;;;7.70;99.90;;;;;;5025142;28;20037;-74
2022/01/04 05:28:38;;;;;;;18.17;7.18;;;7.80;99.90;;;;;;5024916;28;20037;-72
2022/01/04 05:31:05;;;;;;;15.98;6.53;;;7.80;99.90;;;;;;5024873;28;20033;-72
2022/01/04 05:33:31;;;;;;;18.23;7.32;;;7.80;99.90;;;;;;5025149;28;20072;-72
2022/01/04 05:35:57;;;;;;;18.50;5.85;;;7.80;99.90;;;;;;5025079;28;20111;-72
2022/01/04 05:38:28;;;;;;;27.25;5.50;;;7.80;99.90;;;;;;5024865;28;20457;-75
2022/01/04 05:40:54;;;;;;;16.10;7.07;;;7.80;99.90;;;;;;5025179;28;20026;-72
2022/01/04 05:43:20;;;;;;;18.27;6.63;;;7.70;99.90;;;;;;5024530;28;20052;-73
2022/01/04 05:45:45;;;;;;;22.65;7.78;;;7.80;99.90;;;;;;5024895;28;20026;-73
2022/01/04 05:48:11;;;;;;;22.60;6.75;;;7.70;99.90;;;;;;5024845;28;20061;-72
2022/01/04 05:50:38;;;;;;;26.25;7.70;;;7.80;99.90;;;;;;5021162;28;20111;-73
2022/01/04 05:53:04;;;;;;;18.70;7.50;;;7.80;99.90;;;;;;5005463;28;20030;-74
2022/01/04 05:55:30;;;;;;;17.48;6.80;;;7.80;99.90;;;;;;5005409;28;20026;-73
2022/01/04 05:57:55;;;;;;;16.60;7.43;;;7.80;99.90;;;;;;5005021;28;20033;-73
2022/01/04 06:00:27;;;;;;;17.90;7.05;;;7.70;99.90;;;;;;5005132;28;20434;-74
2022/01/04 06:02:54;;;;;;;24.77;7.82;;;7.80;99.90;;;;;;5005066;28;20414;-72
2022/01/04 06:05:19;;;;;;;21.38;6.30;;;7.80;99.90;;;;;;5019731;28;20589;-72
2022/01/04 06:07:45;;;;;;;25.02;7.18;;;7.80;99.90;;;;;;5010073;28;20034;-72
2022/01/04 06:10:12;;;;;;;16.75;7.57;;;7.80;99.90;;;;;;5010420;28;20031;-72
2022/01/04 06:15:15;;;;;;;24.90;7.63;;;7.80;99.90;;;;;;5024380;28;20061;-75
2022/01/04 06:17:47;;;;;;;20.67;6.75;;;7.80;99.90;;;;;;5008690;28;20037;-72
2022/01/04 06:20:15;;;;;;;14.00;6.60;;;7.80;99.90;;;;;;5004920;28;20022;-74
2022/01/04 06:22:41;;;;;;;21.15;8.73;;;7.90;99.90;;;;;;5005100;28;20033;-75
2022/01/04 06:25:10;;;;;;;23.23;7.13;;;7.80;99.90;;;;;;5004591;28;20057;-73
2022/01/04 06:27:36;;;;;;;46.17;7.32;;;7.90;99.90;;;;;;5003428;28;20089;-74
2022/01/04 06:30:03;;;;;;;17.08;6.40;;;7.90;99.90;;;;;;5005021;28;20037;-73
2022/01/04 06:32:29;;;;;;;23.13;8.20;;;7.90;99.90;;;;;;5003498;28;20395;-73
2022/01/04 06:34:54;;;;;;;19.33;7.43;;;7.90;99.90;;;;;;5011373;28;20092;-73
2022/01/04 06:37:20;;;;;;;22.27;8.15;;;7.90;99.90;;;;;;5028486;28;20051;-73
2022/01/04 06:39:45;;;;;;;18.95;6.95;;;7.90;99.90;;;;;;5027698;28;20048;-73
2022/01/04 06:42:12;;;;;;;23.17;7.47;;;7.90;99.90;;;;;;5028348;28;20037;-73
2022/01/04 06:44:41;;;;;;;23.02;6.43;;;7.90;99.90;;;;;;5026918;28;20060;-73
2022/01/04 06:47:07;;;;;;;18.48;6.97;;;7.90;99.90;;;;;;5027666;28;20026;-75
2022/01/04 06:49:33;;;;;;;22.30;6.38;;;8.00;99.90;;;;;;5028094;28;20050;-73
2022/01/04 06:51:59;;;;;;;26.60;7.97;;;8.00;99.90;;;;;;5028208;28;20038;-74
2022/01/04 06:54:25;;;;;;;21.75;5.93;;;8.00;99.90;;;;;;5027794;28;20033;-73
2022/01/04 06:56:51;;;;;;;25.23;6.07;;;8.00;99.90;;;;;;5027903;28;20026;-73
2022/01/04 06:59:17;;;;;;;22.13;6.57;;;7.90;99.90;;;;;;5014077;28;20027;-72
2022/01/04 07:01:44;;;;;;;28.70;7.72;;;8.00;99.90;;;;;;5012597;28;20056;-73
2022/01/04 07:04:09;;;;;;;17.75;7.93;;;8.00;99.90;;;;;;5013774;28;20049;-72
2022/01/04 07:06:35;;;;;;;18.77;6.47;;;8.00;99.90;;;;;;5026257;28;20085;-73
2022/01/04 07:09:03;;;;;;;23.58;8.18;;;7.90;99.90;;;;;;5027881;28;20050;-72
2022/01/04 07:11:29;;;;;;;17.17;7.68;;;8.00;99.90;;;;;;5027726;28;20037;-74
2022/01/04 07:13:56;;;;;;;19.83;7.00;;;8.00;99.90;;;;;;5027554;28;20096;-72
2022/01/04 07:16:22;;;;;;;20.40;7.28;;;8.00;99.90;;;;;;5027346;28;20030;-72
2022/01/04 07:18:49;;;;;;;16.67;7.38;;;8.00;99.90;;;;;;5027467;28;20026;-71
2022/01/04 07:21:18;;;;;;;19.35;6.38;;;8.00;99.90;;;;;;5026926;28;20029;-73
2022/01/04 07:23:44;;;;;;;27.15;8.85;;;8.00;99.90;;;;;;5023702;28;20065;-73
2022/01/04 07:26:17;;;;;;;23.70;7.25;;;8.00;99.90;;;;;;5007746;28;20053;-71
2022/01/04 07:28:46;;;;;;;21.25;6.70;;;8.00;99.90;;;;;;5007490;28;20027;-72
2022/01/04 07:31:13;;;;;;;15.70;8.05;;;8.10;99.90;;;;;;5007663;28;20078;-76
2022/01/04 07:33:40;;;;;;;17.15;8.00;;;8.10;99.90;;;;;;5014579;28;20045;-78
2022/01/04 07:36:06;;;;;;;27.15;8.38;;;8.00;99.90;;;;;;5020135;28;20102;-76
2022/01/04 07:38:33;;;;;;;19.55;7.35;;;8.00;99.90;;;;;;5027180;28;20037;-76
2022/01/04 07:41:01;;;;;;;17.95;7.47;;;8.10;99.90;;;;;;5021160;28;20035;-77
2022/01/04 07:43:33;;;;;;;25.33;7.32;;;8.00;99.90;;;;;;5023243;28;20463;-76
2022/01/04 07:46:00;;;;;;;16.65;7.22;;;8.00;99.90;;;;;;5019669;28;20057;-79
2022/01/04 07:48:26;;;;;;;19.67;6.70;;;8.00;99.90;;;;;;5005949;28;20049;-75
2022/01/04 07:50:55;;;;;;;28.85;7.78;;;8.00;99.90;;;;;;5006753;28;20054;-76
2022/01/04 07:53:22;;;;;;;17.10;7.05;;;8.00;99.90;;;;;;5014473;28;20026;-76
2022/01/04 07:55:49;;;;;;;27.75;7.53;;;8.00;99.90;;;;;;5013474;28;20053;-75
2022/01/04 07:58:15;;;;;;;16.63;6.10;;;8.00;99.90;;;;;;5012251;28;20075;-74
2022/01/04 08:00:41;;;;;;;19.08;6.72;;;7.90;99.90;;;;;;5012534;28;20030;-74
2022/01/04 08:03:07;;;;;;;25.08;7.75;;;8.00;99.90;;;;;;5016776;28;20033;-77
2022/01/04 08:05:33;;;;;;;26.25;7.20;;;8.00;99.90;;;;;;5025474;28;20508;-76
2022/01/04 08:07:59;;;;;;;23.48;7.68;;;8.00;99.90;;;;;;5031299;28;20061;-78
2022/01/04 08:10:25;;;;;;;30.08;7.90;;;8.00;99.90;;;;;;5015665;28;20038;-79
2022/01/04 08:12:50;;;;;;;16.77;7.47;;;8.00;99.90;;;;;;5014448;28;20026;-76
2022/01/04 08:15:16;;;;;;;19.08;7.40;;;8.00;99.90;;;;;;5005445;28;20031;-78
2022/01/04 08:17:42;;;;;;;15.95;7.18;;;8.00;99.90;;;;;;5006358;28;20033;-75
2022/01/04 08:20:09;;;;;;;22.40;8.43;;;8.00;99.90;;;;;;5018927;28;20418;-75
2022/01/04 08:22:36;;;;;;;29.83;8.07;;;8.00;99.90;;;;;;5026189;28;20026;-77
2022/01/04 08:25:06;;;;;;;16.52;7.38;;;8.00;99.90;;;;;;5024300;28;20033;-75
2022/01/04 08:27:33;;;;;;;19.65;7.25;;;8.00;99.90;;;;;;5020615;28;20037;-75
2022/01/04 08:30:02;;;;;;;18.67;6.50;;;8.00;99.90;;;;;;5040867;28;20099;-77
2022/01/04 08:32:28;;;;;;;18.10;6.18;;;8.00;99.90;;;;;;5017987;28;20077;-76
2022/01/04 08:34:54;;;;;;;27.35;6.93;;;8.10;99.90;;;;;;5005379;28;20054;-75
2022/01/04 08:37:19;;;;;;;13.00;6.55;;;8.00;99.90;;;;;;5004823;28;20030;-76
2022/01/04 08:39:46;;;;;;;24.70;7.60;;;8.10;99.90;;;;;;5006052;28;20030;-76
2022/01/04 08:42:18;;;;;;;23.35;7.50;;;8.10;99.90;;;;;;5005111;28;20062;-76
2022/01/04 08:44:43;;;;;;;20.60;6.25;;;8.10;99.90;;;;;;5004728;28;20037;-75
2022/01/04 08:47:11;;;;;;;14.15;6.25;;;8.10;99.90;;;;;;5011171;28;20046;-73
2022/01/04 08:49:37;;;;;;;15.60;5.32;;;8.10;99.90;;;;;;5016054;28;20081;-74
2022/01/04 08:52:05;;;;;;;20.70;6.15;;;8.10;99.90;;;;;;5017286;28;20089;-75
2022/01/04 08:54:30;;;;;;;20.42;6.45;;;8.10;99.90;;;;;;5006498;28;20032;-77
2022/01/04 08:56:56;;;;;;;18.65;6.78;;;8.20;99.90;;;;;;5005433;28;20062;-75
2022/01/04 08:59:23;;;;;;;15.73;6.57;;;8.20;99.90;;;;;;5005635;28;20034;-76
2022/01/04 09:01:48;;;;;;;19.20;7.22;;;8.20;99.90;;;;;;5016883;28;20084;-77
2022/01/04 09:04:23;;;;;;;20.98;7.60;;;8.20;99.90;;;;;;5021324;28;20034;-77
2022/01/04 09:06:49;;;;;;;19.63;6.63;;;8.20;99.90;;;;;;5012891;28;20046;-75
2022/01/04 09:09:15;;;;;;;16.85;6.30;;;8.20;99.90;;;;;;5023262;28;20093;-76
2022/01/04 09:11:41;;;;;;;22.60;6.72;;;8.20;99.90;;;;;;5024129;28;20038;-75
2022/01/04 09:19:23;;;;;;;18.80;7.18;;;8.30;99.90;;;;;;5022930;28;20041;-75
2022/01/04 09:21:49;;;;;;;12.98;5.78;;;8.30;99.90;;;;;;5024539;28;20532;-78
2022/01/04 09:24:18;;;;;;;21.80;6.97;;;8.30;99.90;;;;;;5006419;28;20045;-78
2022/01/04 09:26:44;;;;;;;20.58;5.82;;;8.20;99.90;;;;;;5010194;28;20482;-76
2022/01/04 09:29:10;;;;;;;12.70;6.18;;;8.30;99.90;;;;;;5005662;28;20030;-75
2022/01/04 09:31:36;;;;;;;17.35;6.93;;;8.30;99.90;;;;;;5011814;28;20034;-73
2022/01/04 09:34:03;;;;;;;16.98;5.30;;;8.30;99.90;;;;;;5023600;28;20021;-76
2022/01/04 09:36:33;;;;;;;25.98;6.50;;;8.30;99.90;;;;;;5022499;28;20026;-74
2022/01/04 09:39:00;;;;;;;18.63;6.40;;;8.30;99.90;;;;;;5023201;28;20375;-76
2022/01/04 09:41:28;;;;;;;13.95;5.30;;;8.30;99.90;;;;;;5023174;28;20030;-77
2022/01/04 09:43:55;;;;;;;17.90;5.55;;;8.30;99.90;;;;;;5011129;28;20030;-75
2022/01/04 09:46:20;;;;;;;17.60;6.30;;;8.30;99.90;;;;;;5003621;28;20129;-76
2022/01/04 09:48:47;;;;;;;16.85;6.38;;;8.30;99.90;;;;;;5040217;28;20056;-77
2022/01/04 09:51:15;;;;;;;23.17;6.07;;;8.30;99.90;;;;;;5027839;28;20069;-77
2022/01/04 09:53:41;;;;;;;18.15;6.90;;;8.20;99.90;;;;;;5008153;28;20122;-76
2022/01/04 09:56:08;;;;;;;20.50;6.68;;;8.10;99.90;;;;;;5005126;28;20023;-76
2022/01/04 09:58:33;;;;;;;13.60;6.38;;;8.10;99.90;;;;;;5012032;28;20026;-78
2022/01/04 10:00:59;;;;;;;15.57;6.38;;;8.00;99.90;;;;;;5015517;28;20029;-77
2022/01/04 10:03:29;;;;;;;19.33;6.65;;;7.90;99.90;;;;;;5035356;28;20037;-77
2022/01/04 10:06:09;;;;;;;12.30;4.68;;;7.80;99.90;;;;;;5020314;28;20030;-76
2022/01/04 10:08:55;;;;;;;13.27;4.13;;;7.80;99.90;;;;;;5017930;28;20061;-80
2022/01/04 10:11:39;;;;;;;10.88;2.67;;;7.80;99.90;;;;;;5026674;28;20049;-79
2022/01/04 10:14:24;;;;;;;10.13;2.87;;;7.60;99.90;;;;;;5012873;28;20035;-82
2022/01/04 10:17:14;;;;;;;6.60;2.72;;;7.50;99.90;;;;;;5030848;28;20034;-80
2022/01/04 10:19:48;;;;;;;10.20;3.55;;;7.50;99.90;;;;;;5015629;28;20057;-77
2022/01/04 10:22:27;;;;;;;9.55;3.25;;;7.30;99.90;;;;;;5027001;28;20026;-77
2022/01/04 10:25:02;;;;;;;7.38;3.38;;;7.30;99.90;;;;;;5026911;28;20044;-78
2022/01/04 10:27:35;;;;;;;16.38;4.43;;;7.30;99.90;;;;;;5027739;28;20394;-78
2022/01/04 10:30:23;;;;;;;11.60;5.43;;;7.40;99.90;;;;;;5021642;28;20037;-78
2022/01/04 10:32:58;;;;;;;9.15;4.50;;;7.40;99.90;;;;;;5040267;28;20442;-78
2022/01/04 10:35:38;;;;;;;17.73;6.43;;;7.40;99.90;;;;;;5006716;28;20030;-79
2022/01/04 10:38:12;;;;;;;14.30;5.45;;;7.50;99.90;;;;;;5008107;28;20038;-79
2022/01/04 10:40:39;;;;;;;6.75;2.65;;;7.40;99.90;;;;;;5008583;28;20046;-76
2022/01/04 10:43:27;;;;;;;5.60;1.88;;;7.40;99.90;;;;;;5008400;28;20026;-77
2022/01/04 10:46:07;;;;;;;2.15;1.00;;;7.20;99.90;;;;;;5010949;28;20038;-75
2022/01/04 10:48:39;;;;;;;1.60;0.88;;;7.00;99.90;;;;;;5013149;28;20022;-79
2022/01/04 10:51:10;;;;;;;0.63;0.30;;;6.70;99.90;;;;;;5018396;28;20172;-75
2022/01/04 10:53:41;;;;;;;8.02;0.30;;;6.60;99.90;;;;;;5010830;28;20037;-75
2022/01/04 10:56:10;;;;;;;1.95;0.55;;;6.40;99.90;;;;;;5011775;28;20053;-76
2022/01/04 10:58:39;;;;;;;0.30;0.30;;;6.40;99.90;;;;;;5027472;28;20078;-75
2022/01/04 11:01:08;;;;;;;1.73;0.50;;;6.40;99.90;;;;;;5026586;28;20398;-77
2022/01/04 11:03:37;;;;;;;3.40;0.52;;;6.40;99.90;;;;;;5027967;28;20053;-76
2022/01/04 11:06:10;;;;;;;2.78;0.88;;;6.50;99.90;;;;;;5025873;28;20026;-77
2022/01/04 11:08:37;;;;;;;13.75;1.40;;;6.50;99.90;;;;;;5028088;28;20036;-78
2022/01/04 11:11:08;;;;;;;1.02;0.43;;;6.50;99.90;;;;;;5027158;28;20038;-76
2022/01/04 11:13:39;;;;;;;1.08;0.70;;;6.60;99.90;;;;;;5026078;28;20022;-77
2022/01/04 11:16:06;;;;;;;3.10;0.60;;;6.60;99.90;;;;;;5028227;28;20029;-77
2022/01/04 11:18:33;;;;;;;3.08;0.88;;;6.70;99.90;;;;;;5018433;28;20026;-78
2022/01/04 11:21:00;;;;;;;2.25;0.88;;;6.70;99.90;;;;;;5009964;28;20387;-79
2022/01/04 11:23:32;;;;;;;4.65;1.45;;;6.60;99.90;;;;;;5027838;28;20056;-76
2022/01/04 11:26:00;;;;;;;3.85;1.05;;;6.60;99.90;;;;;;5026641;28;20477;-76
2022/01/04 11:28:26;;;;;;;4.13;1.50;;;6.70;99.90;;;;;;5027134;28;20034;-78
2022/01/04 11:31:22;;;;;;;3.10;1.20;;;6.70;99.90;;;;;;5025425;28;20096;-77
2022/01/04 11:34:13;;;;;;;3.53;1.23;;;6.70;99.90;;;;;;5019005;28;20506;-77
2022/01/04 11:36:48;;;;;;;4.30;1.88;;;6.80;99.90;;;;;;5034990;28;20510;-76
2022/01/04 11:39:25;;;;;;;4.85;1.38;;;6.80;99.90;;;;;;5012498;28;20110;-78
2022/01/04 11:41:51;;;;;;;6.88;1.30;;;6.80;99.90;;;;;;5014238;28;20097;-77
2022/01/04 11:44:20;;;;;;;2.15;1.00;;;6.90;99.90;;;;;;5014670;28;20096;-75
2022/01/04 11:47:00;;;;;;;2.22;0.90;;;6.90;99.90;;;;;;5019484;28;20582;-77
2022/01/04 11:49:26;;;;;;;6.25;1.30;;;7.00;99.90;;;;;;5026111;28;20048;-79
2022/01/04 11:51:52;;;;;;;3.47;1.73;;;7.00;99.90;;;;;;5019104;28;20506;-78
2022/01/04 11:54:26;;;;;;;1.95;0.85;;;7.00;99.90;;;;;;5022954;28;20478;-79
2022/01/04 11:57:02;;;;;;;2.80;1.27;;;7.10;99.90;;;;;;5025957;28;20038;-79
2022/01/04 11:59:44;;;;;;;3.47;1.02;;;7.20;99.90;;;;;;5026388;28;20093;-79
2022/01/04 12:02:32;;;;;;;8.00;1.52;;;7.20;99.90;;;;;;5024488;28;20026;-80
2022/01/04 12:05:13;;;;;;;3.50;1.90;;;7.30;99.90;;;;;;5004776;28;20034;-78
2022/01/04 12:07:38;;;;;;;6.45;1.63;;;7.30;99.90;;;;;;5017808;28;20029;-78
2022/01/04 12:10:21;;;;;;;11.48;2.40;;;7.20;99.90;;;;;;5007224;28;20026;-78
2022/01/04 12:13:09;;;;;;;2.78;1.10;;;7.20;99.90;;;;;;5040002;28;20052;-77
2022/01/04 12:15:34;;;;;;;3.90;1.30;;;7.20;99.90;;;;;;5024209;28;20041;-77
2022/01/04 12:18:04;;;;;;;4.45;1.23;;;7.10;99.90;;;;;;5021104;28;20053;-77
2022/01/04 12:20:42;;;;;;;2.88;1.27;;;7.10;99.90;;;;;;5017389;28;20031;-81
2022/01/04 12:23:25;;;;;;;1.85;0.73;;;7.00;99.90;;;;;;5005851;28;20526;-78
2022/01/04 12:26:07;;;;;;;3.83;1.25;;;7.00;99.90;;;;;;5005903;28;20030;-79
2022/01/04 12:28:37;;;;;;;7.50;2.15;;;6.90;99.90;;;;;;5018318;28;20034;-80
2022/01/04 12:33:45;;;;;;;5.40;1.10;;;6.80;99.90;;;;;;5017118;28;20034;-76
2022/01/04 12:36:33;;;;;;;2.22;1.17;;;6.70;99.90;;;;;;5012022;28;20033;-76
2022/01/04 12:39:13;;;;;;;1.60;1.00;;;6.70;99.90;;;;;;5009047;28;20054;-75
2022/01/04 12:41:40;;;;;;;7.03;1.98;;;6.60;99.90;;;;;;5013351;28;20496;-78
2022/01/04 12:44:08;;;;;;;4.05;1.05;;;6.60;99.90;;;;;;5014279;28;20033;-75
2022/01/04 12:46:40;;;;;;;0.98;0.63;;;6.60;99.90;;;;;;5012224;28;20240;-78
2022/01/04 12:49:18;;;;;;;2.13;1.08;;;6.60;99.90;;;;;;5013072;28;20018;-75
2022/01/04 12:51:50;;;;;;;2.40;0.93;;;6.50;99.90;;;;;;5023944;28;20092;-77
2022/01/04 12:54:34;;;;;;;1.50;0.45;;;6.50;99.90;;;;;;5024939;28;20036;-76
2022/01/04 12:57:05;;;;;;;0.35;0.30;;;6.40;99.90;;;;;;5025768;28;20030;-77
2022/01/04 12:59:33;;;;;;;0.88;0.57;;;6.40;99.90;;;;;;5018108;28;20081;-75
2022/01/04 13:02:10;;;;;;;1.27;0.20;;;6.40;99.90;;;;;;5024119;28;20527;-78
2022/01/04 13:04:37;;;;;;;0.52;0.40;;;6.40;99.90;;;;;;5025488;28;20113;-78
2022/01/04 13:07:18;;;;;;;1.08;0.65;;;6.50;99.90;;;;;;5023956;28;20056;-79